createdAt,value
2019-04-25T00:00:37.977Z,8.40
2019-04-25T00:03:12.214Z,8.87
2019-04-25T00:05:43.572Z,9.13
2019-04-25T00:08:14.397Z,8.93
2019-04-25T00:10:46.085Z,8.67
2019-04-25T00:13:16.723Z,8.93
2019-04-25T00:15:48.052Z,8.80
2019-04-25T00:18:18.711Z,9.10
2019-04-25T00:20:53.921Z,8.83
2019-04-25T00:23:24.481Z,9.23
2019-04-25T00:26:15.713Z,9.40
2019-04-25T00:28:46.722Z,9.03
2019-04-25T00:31:18.470Z,9.20
2019-04-25T00:33:49.590Z,9.13
2019-04-25T00:36:21.820Z,9.20
2019-04-25T00:38:53.237Z,8.90
2019-04-25T00:41:23.732Z,9.50
2019-04-25T00:43:54.352Z,9.43
2019-04-25T00:46:24.851Z,9.40
2019-04-25T00:48:55.288Z,8.80
2019-04-25T00:51:25.668Z,8.90
2019-04-25T00:53:56.102Z,8.80
2019-04-25T00:56:26.532Z,8.87
2019-04-25T00:59:16.031Z,8.73
2019-04-25T01:02:01.495Z,8.73
2019-04-25T01:04:33.890Z,8.60
2019-04-25T01:07:04.547Z,8.73
2019-04-25T01:09:35.267Z,8.30
2019-04-25T01:12:06.602Z,9.20
2019-04-25T01:14:37.119Z,9.10
2019-04-25T01:17:07.877Z,8.83
2019-04-25T01:19:38.380Z,8.37
2019-04-25T01:22:11.794Z,8.70
2019-04-25T01:24:43.855Z,8.63
2019-04-25T01:27:14.591Z,9.23
2019-04-25T01:29:46.320Z,9.10
2019-04-25T01:32:20.566Z,8.80
2019-04-25T01:35:01.103Z,8.70
2019-04-25T01:37:39.313Z,9.00
2019-04-25T01:40:29.088Z,8.67
2019-04-25T01:43:18.638Z,8.77
2019-04-25T01:45:49.690Z,8.73
2019-04-25T01:48:20.569Z,8.83
2019-04-25T01:50:51.101Z,8.80
2019-04-25T01:53:21.541Z,8.87
2019-04-25T01:56:00.944Z,8.80
2019-04-25T01:58:25.342Z,8.43
2019-04-25T02:00:57.068Z,9.00
2019-04-25T02:03:28.041Z,8.70
2019-04-25T02:05:59.664Z,9.30
2019-04-25T02:08:30.132Z,8.33
2019-04-25T02:11:11.723Z,8.87
2019-04-25T02:13:43.739Z,9.67
2019-04-25T02:16:14.558Z,8.73
2019-04-25T02:18:45.077Z,9.90
2019-04-25T02:21:15.832Z,8.90
2019-04-25T02:23:46.371Z,9.00
2019-04-25T02:26:18.617Z,8.90
2019-04-25T02:28:49.121Z,10.03
2019-04-25T02:31:19.794Z,9.27
2019-04-25T02:33:56.680Z,9.50
2019-04-25T02:36:25.468Z,9.87
2019-04-25T02:38:59.556Z,9.43
2019-04-25T02:41:28.387Z,9.67
2019-04-25T02:44:02.994Z,9.80
2019-04-25T02:46:50.322Z,10.07
2019-04-25T02:49:40.114Z,9.97
2019-04-25T02:52:18.080Z,9.90
2019-04-25T02:54:49.966Z,10.03
2019-04-25T02:57:20.606Z,10.20
2019-04-25T02:59:51.056Z,10.77
2019-04-25T03:02:24.868Z,9.77
2019-04-25T03:04:57.548Z,10.50
2019-04-25T03:07:27.790Z,10.33
2019-04-25T03:09:59.482Z,10.03
2019-04-25T03:12:33.509Z,10.50
2019-04-25T03:15:05.347Z,10.70
2019-04-25T03:17:34.831Z,10.67
2019-04-25T03:20:20.714Z,10.67
2019-04-25T03:22:51.337Z,11.07
2019-04-25T03:25:24.599Z,10.90
2019-04-25T03:27:54.182Z,10.93
2019-04-25T03:30:25.672Z,10.40
2019-04-25T03:32:56.498Z,10.93
2019-04-25T03:35:27.004Z,10.93
2019-04-25T03:37:57.682Z,10.97
2019-04-25T03:40:28.506Z,11.80
2019-04-25T03:42:59.137Z,10.50
2019-04-25T03:45:29.840Z,11.20
2019-04-25T03:48:00.274Z,10.80
2019-04-25T03:50:31.642Z,10.67
2019-04-25T03:53:03.055Z,10.73
2019-04-25T03:55:35.925Z,10.40
2019-04-25T03:58:08.752Z,10.47
2019-04-25T04:00:38.976Z,10.43
2019-04-25T04:03:09.809Z,11.23
2019-04-25T04:05:40.321Z,10.53
2019-04-25T04:08:11.811Z,10.37
2019-04-25T04:10:43.245Z,11.03
2019-04-25T04:13:14.630Z,10.33
2019-04-25T04:15:45.925Z,9.93
2019-04-25T04:18:26.501Z,10.43
2019-04-25T04:21:03.208Z,10.50
2019-04-25T04:23:40.992Z,10.23
2019-04-25T04:26:13.660Z,10.40
2019-04-25T04:28:45.467Z,10.33
2019-04-25T04:31:16.599Z,10.07
2019-04-25T04:33:47.388Z,10.73
2019-04-25T04:36:19.817Z,10.47
2019-04-25T04:38:50.365Z,10.90
2019-04-25T04:41:20.870Z,10.33
2019-04-25T04:43:51.345Z,10.23
2019-04-25T04:46:21.840Z,11.23
2019-04-25T04:48:54.029Z,10.63
2019-04-25T04:51:24.628Z,10.50
2019-04-25T04:53:55.347Z,9.63
2019-04-25T04:56:25.822Z,10.57
2019-04-25T04:58:56.437Z,10.40
2019-04-25T05:01:28.718Z,10.27
2019-04-25T05:04:07.202Z,10.47
2019-04-25T05:06:47.048Z,10.60
2019-04-25T05:09:23.680Z,9.93
2019-04-25T05:11:54.069Z,10.10
2019-04-25T05:14:26.587Z,11.20
2019-04-25T05:16:56.752Z,10.17
2019-04-25T05:19:27.303Z,10.67
2019-04-25T05:21:58.900Z,9.87
2019-04-25T05:24:29.518Z,10.63
2019-04-25T05:26:59.933Z,10.53
2019-04-25T05:29:30.391Z,10.17
2019-04-25T05:32:01.124Z,10.20
2019-04-25T05:34:31.782Z,11.60
2019-04-25T05:37:03.854Z,10.10
2019-04-25T05:39:34.303Z,10.40
2019-04-25T05:42:11.883Z,9.83
2019-04-25T05:44:44.029Z,10.73
2019-04-25T05:47:15.901Z,9.57
2019-04-25T05:49:46.876Z,9.07
2019-04-25T05:52:17.571Z,10.13
2019-04-25T05:54:48.081Z,9.40
2019-04-25T05:57:18.809Z,10.23
2019-04-25T05:59:49.508Z,9.80
2019-04-25T06:02:20.148Z,8.97
2019-04-25T06:04:50.721Z,9.17
2019-04-25T06:07:21.527Z,9.53
2019-04-25T06:10:14.435Z,8.70
2019-04-25T06:12:50.882Z,8.50
2019-04-25T06:15:24.965Z,8.73
2019-04-25T06:18:14.841Z,10.73
2019-04-25T06:20:45.359Z,9.70
2019-04-25T06:23:36.277Z,9.20
2019-04-25T06:26:19.859Z,8.75
2019-04-25T06:28:49.468Z,8.98
2019-04-25T06:31:11.668Z,8.60
2019-04-25T06:33:43.474Z,8.93
2019-04-25T06:36:14.176Z,8.70
2019-04-25T06:38:44.858Z,9.03
2019-04-25T06:41:15.572Z,8.13
2019-04-25T06:43:47.853Z,8.60
2019-04-25T06:46:37.591Z,8.95
2019-04-25T06:49:16.450Z,8.53
2019-04-25T06:51:51.490Z,8.35
2019-04-25T06:54:25.237Z,8.98
2019-04-25T06:56:55.618Z,8.48
2019-04-25T06:59:27.552Z,8.48
2019-04-25T07:01:58.645Z,8.98
2019-04-25T07:04:29.280Z,8.98
2019-04-25T07:07:10.604Z,8.63
2019-04-25T07:09:34.954Z,9.03
2019-04-25T07:12:05.700Z,8.43
2019-04-25T07:14:36.873Z,11.22
2019-04-25T07:17:07.901Z,10.20
2019-04-25T07:19:38.641Z,8.48
2019-04-25T07:22:09.292Z,9.10
2019-04-25T07:24:40.014Z,9.08
2019-04-25T07:27:26.768Z,8.63
2019-04-25T07:30:05.619Z,8.88
2019-04-25T07:32:44.378Z,9.15
2019-04-25T07:35:15.068Z,8.98
2019-04-25T07:37:45.720Z,8.75
2019-04-25T07:40:17.052Z,8.98
2019-04-25T07:42:47.762Z,8.70
2019-04-25T07:45:18.612Z,8.10
2019-04-25T07:47:49.727Z,8.83
2019-04-25T07:50:20.721Z,8.85
2019-04-25T07:52:51.400Z,8.58
2019-04-25T07:55:23.329Z,9.70
2019-04-25T07:57:54.137Z,9.50
2019-04-25T08:00:25.253Z,8.88
2019-04-25T08:02:55.860Z,8.20
2019-04-25T08:05:27.816Z,8.25
2019-04-25T08:07:59.598Z,7.87
2019-04-25T08:10:36.170Z,8.75
2019-04-25T08:13:06.763Z,8.45
2019-04-25T08:15:56.272Z,7.97
2019-04-25T08:18:30.278Z,8.40
2019-04-25T08:21:03.247Z,8.33
2019-04-25T08:23:36.638Z,8.10
2019-04-25T08:26:06.729Z,8.38
2019-04-25T08:28:50.148Z,8.40
2019-04-25T08:31:11.110Z,7.80
2019-04-25T08:33:43.467Z,10.10
2019-04-25T08:36:14.303Z,8.05
2019-04-25T08:38:44.917Z,8.35
2019-04-25T08:41:16.749Z,8.65
2019-04-25T08:43:47.468Z,7.70
2019-04-25T08:46:19.653Z,8.20
2019-04-25T08:49:09.522Z,8.55
2019-04-25T08:51:40.688Z,7.80
2019-04-25T08:54:31.196Z,8.25
2019-04-25T08:57:05.098Z,8.43
2019-04-25T08:59:49.161Z,8.98
2019-04-25T09:02:36.499Z,7.95
2019-04-25T09:05:29.456Z,8.03
2019-04-25T09:08:01.308Z,8.08
2019-04-25T09:10:32.728Z,7.60
2019-04-25T09:13:04.788Z,8.85
2019-04-25T09:15:36.698Z,7.47
2019-04-25T09:18:07.987Z,7.55
2019-04-25T09:20:40.886Z,7.55
2019-04-25T09:23:10.998Z,7.22
2019-04-25T09:25:44.447Z,7.05
2019-04-25T09:28:15.001Z,7.42
2019-04-25T09:30:45.965Z,7.65
2019-04-25T09:33:16.652Z,7.45
2019-04-25T09:35:47.259Z,7.08
2019-04-25T09:38:20.403Z,7.30
2019-04-25T09:40:51.368Z,7.40
2019-04-25T09:43:23.458Z,7.45
2019-04-25T09:46:07.994Z,7.33
2019-04-25T09:48:49.773Z,7.20
2019-04-25T09:51:25.675Z,7.12
2019-04-25T09:54:15.456Z,7.72
2019-04-25T09:57:24.395Z,8.15
2019-04-25T09:59:55.037Z,7.30
2019-04-25T10:02:26.683Z,7.35
2019-04-25T10:04:57.366Z,6.75
2019-04-25T10:07:27.918Z,8.30
2019-04-25T10:09:58.618Z,7.58
2019-04-25T10:12:29.427Z,7.33
2019-04-25T10:15:14.321Z,7.28
2019-04-25T10:17:46.103Z,8.13
2019-04-25T10:20:19.167Z,7.67
2019-04-25T10:22:49.704Z,7.22
2019-04-25T10:25:20.527Z,7.53
2019-04-25T10:27:51.973Z,7.42
2019-04-25T10:30:25.854Z,7.37
2019-04-25T10:32:56.129Z,8.10
2019-04-25T10:35:27.019Z,7.67
2019-04-25T10:37:57.841Z,7.97
2019-04-25T10:40:29.353Z,7.78
2019-04-25T10:43:01.415Z,8.63
2019-04-25T10:45:33.966Z,7.17
2019-04-25T10:48:05.267Z,7.72
2019-04-25T10:50:36.110Z,8.28
2019-04-25T10:53:06.830Z,8.08
2019-04-25T10:55:37.535Z,7.47
2019-04-25T10:58:08.382Z,8.30
2019-04-25T11:00:42.250Z,8.45
2019-04-25T11:03:33.725Z,7.83
2019-04-25T11:06:05.090Z,7.35
2019-04-25T11:08:35.927Z,7.80
2019-04-25T11:11:06.881Z,7.65
2019-04-25T11:13:37.768Z,7.40
2019-04-25T11:16:08.719Z,7.53
2019-04-25T11:18:39.514Z,7.95
2019-04-25T11:21:10.259Z,6.83
2019-04-25T11:23:41.403Z,7.10
2019-04-25T11:26:13.735Z,8.08
2019-04-25T11:28:45.319Z,8.00
2019-04-25T11:31:23.668Z,7.28
2019-04-25T11:33:54.545Z,7.37
2019-04-25T11:36:25.549Z,7.95
2019-04-25T11:39:15.378Z,7.15
2019-04-25T11:41:48.208Z,7.62
2019-04-25T11:44:18.782Z,7.37
2019-04-25T11:46:49.680Z,7.42
2019-04-25T11:49:20.522Z,8.05
2019-04-25T11:51:52.358Z,7.47
2019-04-25T11:54:24.260Z,7.67
2019-04-25T11:56:56.459Z,7.60
2019-04-25T11:59:27.382Z,7.10
2019-04-25T12:01:58.025Z,8.05
2019-04-25T12:04:28.892Z,7.92
2019-04-25T12:06:59.525Z,7.65
2019-04-25T12:09:30.239Z,7.22
2019-04-25T12:12:00.904Z,8.00
2019-04-25T12:14:31.761Z,7.55
2019-04-25T12:17:03.807Z,8.25
2019-04-25T12:19:37.989Z,7.50
2019-04-25T12:22:11.209Z,7.45
2019-04-25T12:24:44.509Z,7.62
2019-04-25T12:27:14.518Z,7.42
2019-04-25T12:29:45.984Z,7.25
2019-04-25T12:32:16.959Z,7.85
2019-04-25T12:34:47.518Z,8.18
2019-04-25T12:37:19.775Z,7.20
2019-04-25T12:39:50.935Z,7.05
2019-04-25T12:42:21.978Z,6.80
2019-04-25T12:45:07.167Z,7.40
2019-04-25T12:47:41.717Z,7.37
2019-04-25T12:50:14.267Z,6.62
2019-04-25T12:52:46.529Z,7.70
2019-04-25T12:55:17.702Z,7.37
2019-04-25T12:57:49.435Z,7.08
2019-04-25T13:00:25.022Z,6.47
2019-04-25T13:02:56.601Z,7.00
2019-04-25T13:05:27.452Z,7.67
2019-04-25T13:07:59.769Z,7.28
2019-04-25T13:10:33.309Z,6.62
2019-04-25T13:13:04.386Z,6.72
2019-04-25T13:15:35.505Z,6.95
2019-04-25T13:18:06.298Z,7.20
2019-04-25T13:20:37.076Z,7.33
2019-04-25T13:23:07.985Z,7.30
2019-04-25T13:25:38.756Z,7.40
2019-04-25T13:28:28.472Z,7.20
2019-04-25T13:31:18.391Z,7.33
2019-04-25T13:34:01.671Z,7.45
2019-04-25T13:36:34.713Z,7.87
2019-04-25T13:39:13.237Z,7.87
2019-04-25T13:41:44.971Z,7.40
2019-04-25T13:44:16.448Z,7.83
2019-04-25T13:46:47.640Z,7.80
2019-04-25T13:49:18.353Z,7.67
2019-04-25T13:51:51.664Z,7.37
2019-04-25T13:54:23.829Z,8.08
2019-04-25T13:56:54.829Z,7.15
2019-04-25T13:59:25.703Z,7.78
2019-04-25T14:01:57.913Z,7.95
2019-04-25T14:04:29.456Z,7.90
2019-04-25T14:07:01.382Z,8.03
2019-04-25T14:09:32.235Z,8.05
2019-04-25T14:12:04.040Z,8.15
2019-04-25T14:14:36.032Z,7.97
2019-04-25T14:17:25.995Z,8.08
2019-04-25T14:20:14.281Z,7.40
2019-04-25T14:22:46.329Z,7.87
2019-04-25T14:25:18.593Z,7.92
2019-04-25T14:27:49.336Z,7.70
2019-04-25T14:30:23.976Z,8.23
2019-04-25T14:32:54.698Z,8.60
2019-04-25T14:35:25.446Z,7.55
2019-04-25T14:37:56.282Z,8.83
2019-04-25T14:40:27.042Z,7.42
2019-04-25T14:42:57.819Z,8.15
2019-04-25T14:45:40.358Z,8.18
2019-04-25T14:48:00.817Z,7.25
2019-04-25T14:50:31.846Z,7.55
2019-04-25T14:53:02.605Z,7.97
2019-04-25T14:55:52.396Z,8.10
2019-04-25T14:58:30.356Z,7.75
2019-04-25T15:01:02.242Z,7.03
2019-04-25T15:03:33.389Z,6.45
2019-04-25T15:06:04.149Z,8.10
2019-04-25T15:08:34.839Z,7.22
2019-04-25T15:11:06.306Z,7.15
2019-04-25T15:13:37.128Z,7.40
2019-04-25T15:16:07.903Z,7.37
2019-04-25T15:18:46.476Z,7.17
2019-04-25T15:21:10.948Z,7.53
2019-04-25T15:23:41.841Z,7.12
2019-04-25T15:26:12.537Z,8.08
2019-04-25T15:28:46.749Z,8.65
2019-04-25T15:31:17.499Z,7.80
2019-04-25T15:33:48.144Z,7.70
2019-04-25T15:36:28.566Z,7.22
2019-04-25T15:39:18.398Z,7.17
2019-04-25T15:42:08.193Z,7.78
2019-04-25T15:44:57.806Z,8.00
2019-04-25T15:47:29.917Z,7.72
2019-04-25T15:50:00.999Z,7.70
2019-04-25T15:52:33.801Z,8.38
2019-04-25T15:55:07.500Z,7.42
2019-04-25T15:57:38.459Z,8.25
2019-04-25T16:00:15.012Z,8.43
2019-04-25T16:02:45.663Z,8.65
2019-04-25T16:05:16.639Z,8.78
2019-04-25T16:07:47.263Z,9.13
2019-04-25T16:10:19.389Z,7.70
2019-04-25T16:12:50.130Z,8.20
2019-04-25T16:15:20.989Z,8.58
2019-04-25T16:17:51.794Z,7.83
2019-04-25T16:20:22.635Z,7.53
2019-04-25T16:22:53.214Z,8.58
2019-04-25T16:25:23.895Z,8.30
2019-04-25T16:27:54.847Z,8.50
2019-04-25T16:30:30.685Z,8.28
2019-04-25T16:33:01.445Z,8.53
2019-04-25T16:35:33.236Z,8.20
2019-04-25T16:38:06.900Z,8.38
2019-04-25T16:40:43.040Z,8.98
2019-04-25T16:43:16.769Z,8.03
2019-04-25T16:45:47.609Z,8.30
2019-04-25T16:48:18.638Z,8.53
2019-04-25T16:50:49.360Z,8.43
2019-04-25T16:53:20.106Z,8.70
2019-04-25T16:55:50.890Z,9.25
2019-04-25T16:58:24.435Z,9.75
2019-04-25T17:01:14.109Z,9.80
2019-04-25T17:03:46.721Z,10.88
2019-04-25T17:06:17.439Z,11.90
2019-04-25T17:08:48.108Z,12.03
2019-04-25T17:11:18.941Z,10.72
2019-04-25T17:13:59.600Z,9.98
2019-04-25T17:16:45.346Z,9.50
2019-04-25T17:19:23.560Z,9.83
2019-04-25T17:21:54.207Z,9.98
2019-04-25T17:24:24.881Z,9.83
2019-04-25T17:26:57.307Z,10.65
2019-04-25T17:29:28.328Z,10.05
2019-04-25T17:32:07.472Z,9.63
2019-04-25T17:34:57.081Z,9.65
2019-04-25T17:37:39.497Z,9.43
2019-04-25T17:40:22.538Z,9.68
2019-04-25T17:42:56.558Z,9.33
2019-04-25T17:45:32.132Z,10.20
2019-04-25T17:48:04.523Z,9.88
2019-04-25T17:50:35.165Z,10.75
2019-04-25T17:53:06.059Z,11.25
2019-04-25T17:55:37.403Z,11.08
2019-04-25T17:58:08.484Z,11.10
2019-04-25T18:00:42.001Z,11.33
2019-04-25T18:03:13.869Z,11.20
2019-04-25T18:05:44.554Z,11.78
2019-04-25T18:08:15.586Z,11.28
2019-04-25T18:10:46.329Z,10.70
2019-04-25T18:15:14.040Z,11.53
2019-04-25T18:17:45.053Z,11.78
2019-04-25T18:20:19.868Z,13.18
2019-04-25T18:22:58.400Z,12.80
2019-04-25T18:25:47.852Z,13.07
2019-04-25T18:28:23.689Z,13.08
2019-04-25T18:30:54.729Z,12.30
2019-04-25T18:33:29.682Z,12.68
2019-04-25T18:36:19.539Z,12.60
2019-04-25T18:39:01.357Z,13.83
2019-04-25T18:41:39.723Z,12.50
2019-04-25T18:44:11.211Z,13.18
2019-04-25T18:46:47.170Z,12.83
2019-04-25T18:49:18.124Z,14.50
2019-04-25T18:51:57.812Z,13.88
2019-04-25T18:54:41.122Z,13.35
2019-04-25T18:57:22.243Z,13.13
2019-04-25T19:00:12.056Z,13.90
2019-04-25T19:03:02.624Z,14.20
2019-04-25T19:05:52.337Z,13.55
2019-04-25T19:08:26.269Z,13.40
2019-04-25T19:11:00.172Z,13.33
2019-04-25T19:13:31.371Z,13.83
2019-04-25T19:16:03.980Z,13.87
2019-04-25T19:18:36.452Z,14.10
2019-04-25T19:21:12.674Z,14.87
2019-04-25T19:23:49.731Z,14.57
2019-04-25T19:26:23.914Z,14.43
2019-04-25T19:28:59.648Z,13.90
2019-04-25T19:31:37.173Z,13.97
2019-04-25T19:34:10.545Z,15.90
2019-04-25T19:36:46.927Z,15.13
2019-04-25T19:39:25.720Z,16.30
2019-04-25T19:42:20.847Z,15.67
2019-04-25T19:44:59.832Z,17.00
2019-04-25T19:47:41.346Z,16.73
2019-04-25T19:50:18.531Z,17.90
2019-04-25T19:52:56.708Z,18.13
2019-04-25T19:55:33.220Z,17.83
2019-04-25T19:58:10.571Z,17.90
2019-04-25T20:00:50.821Z,17.07
2019-04-25T20:03:47.306Z,17.87
2019-04-25T20:06:16.050Z,18.00
2019-04-25T20:08:59.708Z,17.53
2019-04-25T20:11:36.879Z,17.63
2019-04-25T20:14:10.075Z,18.90
2019-04-25T20:16:44.896Z,18.00
2019-04-25T20:19:17.162Z,19.50
2019-04-25T20:21:50.027Z,18.97
2019-04-25T20:24:21.364Z,19.53
2019-04-25T20:26:52.574Z,19.17
2019-04-25T20:29:23.616Z,20.20
2019-04-25T20:31:54.880Z,20.03
2019-04-25T20:34:25.697Z,19.97
2019-04-25T20:36:56.554Z,19.33
2019-04-25T20:39:27.866Z,21.33
2019-04-25T20:41:58.448Z,19.93
2019-04-25T20:44:29.086Z,19.97
2019-04-25T20:47:01.784Z,22.33
2019-04-25T20:49:33.375Z,20.97
2019-04-25T20:52:04.300Z,21.93
2019-04-25T20:54:34.790Z,21.80
2019-04-25T20:57:05.478Z,21.90
2019-04-25T20:59:36.107Z,23.13
2019-04-25T21:02:07.673Z,22.63
2019-04-25T21:04:43.030Z,21.67
2019-04-25T21:07:14.597Z,21.83
2019-04-25T21:09:45.194Z,21.47
2019-04-25T21:12:16.295Z,21.60
2019-04-25T21:14:56.898Z,21.77
2019-04-25T21:17:36.640Z,22.30
2019-04-25T21:20:08.021Z,22.10
2019-04-25T21:22:41.514Z,21.90
2019-04-25T21:25:12.296Z,24.07
2019-04-25T21:27:42.951Z,23.13
2019-04-25T21:30:13.811Z,24.40
2019-04-25T21:32:53.402Z,23.23
2019-04-25T21:35:24.885Z,23.40
2019-04-25T21:37:55.590Z,22.77
2019-04-25T21:40:45.188Z,23.57
2019-04-25T21:43:20.403Z,23.17
2019-04-25T21:45:51.898Z,23.70
2019-04-25T21:48:23.548Z,22.53
2019-04-25T21:50:55.014Z,22.57
2019-04-25T21:53:26.750Z,21.67
2019-04-25T21:55:57.629Z,23.87
2019-04-25T21:58:28.525Z,23.30
2019-04-25T22:01:18.355Z,23.53
2019-04-25T22:03:49.628Z,23.53
2019-04-25T22:06:20.985Z,24.07
2019-04-25T22:08:51.475Z,23.80
2019-04-25T22:11:22.069Z,23.97
2019-04-25T22:13:52.870Z,24.50
2019-04-25T22:16:23.885Z,25.70
2019-04-25T22:18:55.512Z,23.77
2019-04-25T22:21:37.387Z,24.90
2019-04-25T22:24:08.909Z,26.20
2019-04-25T22:26:31.419Z,25.03
2019-04-25T22:29:03.279Z,24.27
2019-04-25T22:31:39.742Z,25.17
2019-04-25T22:34:29.476Z,24.37
2019-04-25T22:37:00.150Z,25.00
2019-04-25T22:39:30.849Z,25.73
2019-04-25T22:42:03.878Z,24.10
2019-04-25T22:44:35.074Z,25.43
2019-04-25T22:47:07.173Z,24.73
2019-04-25T22:49:38.670Z,24.93
2019-04-25T22:52:09.308Z,24.77
2019-04-25T22:54:40.068Z,25.33
2019-04-25T22:57:10.498Z,25.43
2019-04-25T22:59:41.235Z,25.03
2019-04-25T23:02:28.857Z,26.47
2019-04-25T23:05:14.409Z,23.77
2019-04-25T23:07:41.957Z,26.10
2019-04-25T23:10:12.793Z,25.17
2019-04-25T23:12:43.247Z,25.90
2019-04-25T23:15:15.278Z,25.73
2019-04-25T23:17:45.775Z,26.03
2019-04-25T23:20:19.858Z,26.60
2019-04-25T23:22:50.454Z,26.27
2019-04-25T23:25:26.414Z,27.77
2019-04-25T23:28:06.622Z,26.50
2019-04-25T23:30:57.362Z,27.47
2019-04-25T23:33:28.045Z,26.80
2019-04-25T23:35:58.973Z,25.17
2019-04-25T23:38:30.839Z,25.13
2019-04-25T23:41:01.748Z,25.33
2019-04-25T23:43:32.620Z,25.20
2019-04-25T23:46:03.158Z,24.90
2019-04-25T23:48:35.242Z,24.30
2019-04-25T23:51:06.375Z,24.27
2019-04-25T23:53:38.085Z,24.20
2019-04-25T23:56:08.928Z,24.47
2019-04-25T23:58:39.880Z,25.60
